This is the latest recevied weather packets stored in our database for station/object OE-11141. If no packets are shown the sender has not sent any weather packets the latest 10 day(s).
| Time | Temp. | Humidity | Pressure | Rain* | Wind** | Luminosity | Snow |
|---|---|---|---|---|---|---|---|
| 1787623877 | 15.56° C | 84% | 1011.7 hPa | 0 mm | - | 0 W/m² | - |
| 1787623504 | 15.56° C | 84% | 1011.8 hPa | 0 mm | - | 0 W/m² | - |
| 1787622905 | 16.11° C | 82% | 1011.9 hPa | 0 mm | - | 0 W/m² | - |
| 1787622078 | 15.56° C | 85% | 1012.1 hPa | 0 mm | - | 0 W/m² | - |
| 1787621705 | 15.56° C | 84% | 1012.3 hPa | 0 mm | - | 0 W/m² | - |
| 1787621105 | 16.11° C | 84% | 1012 hPa | 0 mm | - | 0 W/m² | - |
| 1787620277 | 16.67° C | 82% | 1012.1 hPa | 0 mm | - | 0 W/m² | - |
| 1787619904 | 16.67° C | 81% | 1012.1 hPa | 0 mm | - | 0 W/m² | - |
| 1787619305 | 16.67° C | 82% | 1012.3 hPa | 0 mm | - | 0 W/m² | - |
| 1787618477 | 16.67° C | 84% | 1011.9 hPa | 0 mm | - | 0 W/m² | - |
| 1787618105 | 16.11° C | 83% | 1012.5 hPa | 0 mm | - | 0 W/m² | - |
| 1787617505 | 16.67° C | 80% | 1012.2 hPa | 0 mm | - | 0 W/m² | - |
| 1787616678 | 16.67° C | 81% | 1012.7 hPa | 0 mm | - | 0 W/m² | - |
| 1787616305 | 17.22° C | 81% | 1012.5 hPa | 0 mm | - | 0 W/m² | - |
| 1787615705 | 16.67° C | 84% | 1012.7 hPa | 0 mm | - | 0 W/m² | - |
| 1787614877 | 17.22° C | 84% | 1012.6 hPa | 0 mm | - | 0 W/m² | - |
| 1787614505 | 17.22° C | 82% | 1012.8 hPa | 0 mm | - | 0 W/m² | - |
| 1787613905 | 17.78° C | 81% | 1013.2 hPa | 0 mm | - | 0 W/m² | - |
| 1787613305 | 17.78° C | 81% | 1013.4 hPa | 0 mm | - | 0 W/m² | - |
| 1787612704 | 17.78° C | 80% | 1013.5 hPa | 0 mm | - | 0 W/m² | - |
| 1787612105 | 17.78° C | 80% | 1013.9 hPa | 0 mm | - | 0 W/m² | - |
| 1787611278 | 17.78° C | 78% | 1014.1 hPa | 0 mm | - | 0 W/m² | - |
| 1787610904 | 18.33° C | 77% | 1014 hPa | 0 mm | - | 0 W/m² | - |
| 1787610305 | 18.33° C | 77% | 1013.8 hPa | 0 mm | - | 0 W/m² | - |
| 1787609478 | 18.33° C | 78% | 1014.3 hPa | 0 mm | - | 0 W/m² | - |
* Rain latest hour (hover to see other rain measurements)
** Current wind speed in m/s (hover to see current wind gust speed)